createdAt,value
2023-01-09T00:01:01.123Z,-1.02
2023-01-09T00:03:28.452Z,-0.98
2023-01-09T00:05:55.214Z,-1.03
2023-01-09T00:08:22.207Z,-1.05
2023-01-09T00:10:50.800Z,-1.07
2023-01-09T00:13:18.459Z,-1.05
2023-01-09T00:15:45.932Z,-1.05
2023-01-09T00:18:12.894Z,-0.99
2023-01-09T00:20:39.979Z,-1.04
2023-01-09T00:23:06.949Z,-1.13
2023-01-09T00:25:34.279Z,-1.11
2023-01-09T00:28:01.679Z,-1.07
2023-01-09T00:30:29.041Z,-1.14
2023-01-09T00:32:56.884Z,-1.13
2023-01-09T00:35:29.126Z,-1.14
2023-01-09T00:37:56.127Z,-1.20
2023-01-09T00:40:23.389Z,-1.20
2023-01-09T00:42:56.483Z,-1.22
2023-01-09T00:45:29.622Z,-1.25
2023-01-09T00:48:07.609Z,-1.19
2023-01-09T00:50:38.065Z,-1.25
2023-01-09T00:53:18.026Z,-1.21
2023-01-09T00:55:45.112Z,-1.23
2023-01-09T00:58:12.463Z,-1.31
2023-01-09T01:00:42.010Z,-1.24
2023-01-09T01:03:09.252Z,-1.17
2023-01-09T01:05:55.182Z,-1.18
2023-01-09T01:08:22.234Z,-1.08
2023-01-09T01:10:49.666Z,-1.10
2023-01-09T01:13:17.778Z,-1.07
2023-01-09T01:15:46.441Z,-1.11
2023-01-09T01:18:14.560Z,-1.03
2023-01-09T01:20:43.161Z,-1.09
2023-01-09T01:23:10.365Z,-1.05
2023-01-09T01:25:40.046Z,-1.06
2023-01-09T01:28:08.059Z,-1.03
2023-01-09T01:30:38.839Z,-0.98
2023-01-09T01:33:06.196Z,-1.03
2023-01-09T01:35:36.467Z,-1.00
2023-01-09T01:38:07.207Z,-0.92
2023-01-09T01:40:34.711Z,-0.99
2023-01-09T01:43:01.718Z,-1.02
2023-01-09T01:45:30.172Z,-0.99
2023-01-09T01:48:06.477Z,-1.02
2023-01-09T01:50:35.903Z,-1.03
2023-01-09T01:53:05.886Z,-0.97
2023-01-09T01:55:36.504Z,-0.98
2023-01-09T01:58:07.539Z,-0.99
2023-01-09T02:00:40.773Z,-0.91
2023-01-09T02:03:08.544Z,-0.98
2023-01-09T02:05:38.226Z,-0.99
2023-01-09T02:08:06.887Z,-0.92
2023-01-09T02:10:34.242Z,-0.90
2023-01-09T02:13:02.603Z,-0.90
2023-01-09T02:15:37.154Z,-0.90
2023-01-09T02:18:20.051Z,-0.87
2023-01-09T02:21:24.433Z,-0.86
2023-01-09T02:23:51.254Z,-0.74
2023-01-09T02:26:36.517Z,-0.81
2023-01-09T02:29:31.226Z,-0.80
2023-01-09T02:32:12.857Z,-0.81
2023-01-09T02:34:53.262Z,-0.89
2023-01-09T02:37:23.088Z,-0.93
2023-01-09T02:40:02.518Z,-0.89
2023-01-09T02:42:31.539Z,-0.89
2023-01-09T02:44:58.321Z,-0.95
2023-01-09T02:47:25.241Z,-0.93
2023-01-09T02:49:55.324Z,-0.94
2023-01-09T02:52:49.973Z,-0.94
2023-01-09T02:55:32.176Z,-0.91
2023-01-09T02:58:29.506Z,-0.98
2023-01-09T03:01:02.155Z,-0.92
2023-01-09T03:03:46.962Z,-0.97
2023-01-09T03:06:38.569Z,-0.93
2023-01-09T03:09:11.096Z,-1.00
2023-01-09T03:11:42.629Z,-1.02
2023-01-09T03:14:15.273Z,-1.10
2023-01-09T03:16:45.236Z,-1.01
2023-01-09T03:19:18.206Z,-1.00
2023-01-09T03:21:46.741Z,-1.05
2023-01-09T03:24:14.192Z,-1.00
2023-01-09T03:26:41.498Z,-1.02
2023-01-09T03:29:08.427Z,-1.01
2023-01-09T03:31:35.365Z,-1.06
2023-01-09T03:34:02.236Z,-1.06
2023-01-09T03:36:29.229Z,-1.06
2023-01-09T03:38:55.996Z,-1.07
2023-01-09T03:41:23.227Z,-1.08
2023-01-09T03:43:50.075Z,-1.00
2023-01-09T03:46:17.535Z,-1.01
2023-01-09T03:48:44.348Z,-1.03
2023-01-09T03:51:11.322Z,-0.97
2023-01-09T03:53:40.992Z,-0.94
2023-01-09T03:56:08.316Z,-0.96
2023-01-09T03:58:35.552Z,-0.96
2023-01-09T04:01:05.105Z,-0.93
2023-01-09T04:03:32.344Z,-1.03
2023-01-09T04:05:59.844Z,-0.95
2023-01-09T04:08:26.885Z,-0.91
2023-01-09T04:10:53.877Z,-0.97
2023-01-09T04:13:21.002Z,-0.91
2023-01-09T04:15:47.672Z,-0.84
2023-01-09T04:18:15.111Z,-0.77
2023-01-09T04:20:42.442Z,-0.80
2023-01-09T04:23:09.285Z,-0.82
2023-01-09T04:25:36.215Z,-0.82
2023-01-09T04:28:03.283Z,-0.87
2023-01-09T04:30:30.226Z,-0.88
2023-01-09T04:32:57.364Z,-0.89
2023-01-09T04:35:24.072Z,-0.89
2023-01-09T04:37:50.912Z,-0.94
2023-01-09T04:40:18.352Z,-0.96
2023-01-09T04:42:45.180Z,-0.92
2023-01-09T04:45:12.519Z,-1.00
2023-01-09T04:47:39.249Z,-0.95
2023-01-09T04:50:06.396Z,-1.00
2023-01-09T04:52:33.310Z,-0.98
2023-01-09T04:55:00.248Z,-1.05
2023-01-09T04:57:27.052Z,-1.01
2023-01-09T04:59:54.389Z,-1.08
2023-01-09T05:02:21.367Z,-1.00
2023-01-09T05:04:48.285Z,-1.07
2023-01-09T05:07:15.499Z,-1.11
2023-01-09T05:09:43.099Z,-1.11
2023-01-09T05:12:10.001Z,-1.08
2023-01-09T05:14:36.887Z,-1.15
2023-01-09T05:17:03.694Z,-1.18
2023-01-09T05:19:30.487Z,-1.26
2023-01-09T05:21:57.181Z,-1.27
2023-01-09T05:24:23.809Z,-1.22
2023-01-09T05:26:50.463Z,-1.22
2023-01-09T05:29:17.150Z,-1.25
2023-01-09T05:31:44.187Z,-1.23
2023-01-09T05:34:11.074Z,-1.32
2023-01-09T05:36:37.785Z,-1.34
2023-01-09T05:39:05.728Z,-1.37
2023-01-09T05:41:32.961Z,-1.35
2023-01-09T05:43:59.861Z,-1.37
2023-01-09T05:46:26.884Z,-1.45
2023-01-09T05:48:53.727Z,-1.49
2023-01-09T05:51:20.795Z,-1.40
2023-01-09T05:53:47.718Z,-1.36
2023-01-09T05:56:14.430Z,-1.38
2023-01-09T05:58:41.673Z,-1.48
2023-01-09T06:01:08.636Z,-1.50
2023-01-09T06:03:35.759Z,-1.51
2023-01-09T06:06:02.728Z,-1.54
2023-01-09T06:08:29.723Z,-1.50
2023-01-09T06:10:56.624Z,-1.49
2023-01-09T06:13:23.261Z,-1.52
2023-01-09T06:15:50.051Z,-1.57
2023-01-09T06:18:16.938Z,-1.53
2023-01-09T06:20:46.154Z,-1.46
2023-01-09T06:23:13.705Z,-1.55
2023-01-09T06:25:40.850Z,-1.50
2023-01-09T06:28:07.781Z,-1.55
2023-01-09T06:30:34.717Z,-1.49
2023-01-09T06:33:01.566Z,-1.44
2023-01-09T06:35:28.321Z,-1.39
2023-01-09T06:37:55.259Z,-1.30
2023-01-09T06:40:21.967Z,-1.32
2023-01-09T06:42:49.746Z,-1.29
2023-01-09T06:45:16.677Z,-1.26
2023-01-09T06:47:43.662Z,-1.22
2023-01-09T06:50:11.336Z,-1.23
2023-01-09T06:52:38.880Z,-1.23
2023-01-09T06:55:06.287Z,-1.16
2023-01-09T06:57:33.087Z,-1.14
2023-01-09T06:59:59.763Z,-1.14
2023-01-09T07:02:26.373Z,-1.09
2023-01-09T07:04:53.192Z,-0.98
2023-01-09T07:07:22.444Z,-0.90
2023-01-09T07:09:50.071Z,-0.86
2023-01-09T07:12:16.904Z,-0.76
2023-01-09T07:14:44.232Z,-0.65
2023-01-09T07:17:14.534Z,-0.63
2023-01-09T07:19:42.278Z,-0.48
2023-01-09T07:22:10.431Z,-0.41
2023-01-09T07:24:37.161Z,-0.27
2023-01-09T07:27:04.308Z,0.05
2023-01-09T07:29:31.147Z,0.63
2023-01-09T07:31:57.882Z,1.02
2023-01-09T07:34:24.556Z,1.71
2023-01-09T07:36:51.488Z,2.56
2023-01-09T07:39:18.281Z,3.10
2023-01-09T07:41:45.496Z,3.47
2023-01-09T07:44:12.900Z,3.86
2023-01-09T07:46:39.875Z,4.15
2023-01-09T07:49:06.940Z,4.44
2023-01-09T07:51:33.900Z,4.67
2023-01-09T07:54:00.685Z,4.79
2023-01-09T07:56:27.451Z,5.00
2023-01-09T07:58:54.254Z,5.16
2023-01-09T08:01:21.031Z,5.29
2023-01-09T08:03:47.930Z,5.47
2023-01-09T08:06:14.804Z,5.59
2023-01-09T08:08:41.561Z,5.71
2023-01-09T08:11:08.429Z,5.88
2023-01-09T08:13:35.259Z,6.03
2023-01-09T08:16:02.099Z,6.12
2023-01-09T08:18:29.019Z,6.19
2023-01-09T08:20:55.980Z,6.28
2023-01-09T08:23:22.781Z,6.32
2023-01-09T08:25:49.601Z,6.41
2023-01-09T08:28:17.396Z,6.47
2023-01-09T08:30:51.042Z,6.46
2023-01-09T08:33:21.135Z,6.41
2023-01-09T08:35:48.425Z,6.50
2023-01-09T08:38:15.277Z,6.54
2023-01-09T08:40:42.137Z,6.53
2023-01-09T08:43:28.007Z,6.48
2023-01-09T08:46:13.712Z,6.64
2023-01-09T08:48:40.864Z,6.49
2023-01-09T08:51:07.582Z,6.54
2023-01-09T08:53:34.391Z,6.65
2023-01-09T08:56:01.308Z,6.56
2023-01-09T08:58:28.381Z,6.72
2023-01-09T09:00:55.368Z,6.82
2023-01-09T09:03:22.446Z,6.86
2023-01-09T09:05:49.166Z,6.78
2023-01-09T09:08:16.590Z,6.90
2023-01-09T09:10:43.459Z,6.89
2023-01-09T09:13:10.138Z,6.99
2023-01-09T09:15:38.308Z,6.97
2023-01-09T09:18:07.321Z,7.13
2023-01-09T09:20:39.117Z,7.18
2023-01-09T09:23:08.255Z,7.19
2023-01-09T09:25:38.315Z,7.27
2023-01-09T09:28:05.890Z,7.26
2023-01-09T09:30:32.930Z,7.21
2023-01-09T09:33:00.384Z,7.20
2023-01-09T09:35:28.626Z,7.22
2023-01-09T09:37:59.505Z,7.25
2023-01-09T09:40:47.424Z,7.36
2023-01-09T09:43:38.934Z,7.37
2023-01-09T09:46:20.190Z,7.38
2023-01-09T09:48:58.298Z,7.41
2023-01-09T09:51:43.267Z,7.46
2023-01-09T09:54:26.048Z,7.56
2023-01-09T09:56:56.927Z,7.66
2023-01-09T09:59:32.453Z,7.79
2023-01-09T10:02:05.072Z,7.80
2023-01-09T10:04:33.891Z,7.89
2023-01-09T10:07:10.018Z,8.04
2023-01-09T10:09:45.861Z,8.10
2023-01-09T10:12:27.656Z,7.98
2023-01-09T10:14:59.853Z,7.92
2023-01-09T10:17:26.429Z,7.85
2023-01-09T10:20:20.987Z,7.78
2023-01-09T10:23:02.903Z,7.77
2023-01-09T10:25:46.208Z,7.72
2023-01-09T10:28:35.056Z,7.68
2023-01-09T10:31:39.383Z,7.70
2023-01-09T10:34:34.950Z,7.63
2023-01-09T10:37:25.674Z,7.76
2023-01-09T10:39:58.967Z,7.72
2023-01-09T10:42:38.135Z,7.84
2023-01-09T10:45:20.109Z,7.90
2023-01-09T10:47:47.920Z,8.02
2023-01-09T10:50:21.031Z,8.06
2023-01-09T10:52:51.308Z,8.11
2023-01-09T10:55:42.828Z,8.12
2023-01-09T10:58:22.020Z,8.22
2023-01-09T11:00:51.150Z,8.26
2023-01-09T11:03:23.422Z,8.40
2023-01-09T11:05:57.859Z,8.39
2023-01-09T11:08:27.816Z,8.29
2023-01-09T11:10:56.857Z,8.36
2023-01-09T11:13:23.636Z,8.37
2023-01-09T11:15:59.204Z,8.42
2023-01-09T11:18:26.419Z,8.50
2023-01-09T11:20:53.557Z,8.51
2023-01-09T11:23:29.634Z,8.55
2023-01-09T11:25:59.285Z,8.53
2023-01-09T11:28:26.633Z,8.60
2023-01-09T11:30:56.564Z,8.64
2023-01-09T11:33:25.513Z,8.75
2023-01-09T11:36:08.222Z,8.80
2023-01-09T11:39:01.263Z,8.88
2023-01-09T11:41:35.007Z,9.00
2023-01-09T11:44:06.842Z,9.21
2023-01-09T11:46:44.132Z,9.34
2023-01-09T11:49:19.970Z,9.41
2023-01-09T11:51:46.854Z,9.23
2023-01-09T11:54:16.346Z,9.32
2023-01-09T11:56:43.436Z,9.19
2023-01-09T11:59:19.694Z,9.23
2023-01-09T12:01:46.656Z,9.33
2023-01-09T12:04:19.034Z,9.31
2023-01-09T12:07:23.170Z,9.29
2023-01-09T12:10:11.005Z,9.22
2023-01-09T12:12:59.182Z,9.17
2023-01-09T12:15:28.663Z,9.20
2023-01-09T12:18:03.748Z,9.23
2023-01-09T12:21:29.515Z,9.23
2023-01-09T12:24:32.264Z,9.23
2023-01-09T12:27:18.958Z,9.13
2023-01-09T12:29:48.609Z,9.20
2023-01-09T12:32:37.396Z,9.32
2023-01-09T12:35:10.215Z,9.39
2023-01-09T12:37:45.874Z,9.31
2023-01-09T12:40:15.755Z,9.25
2023-01-09T12:43:09.212Z,9.29
2023-01-09T12:45:57.418Z,9.28
2023-01-09T12:48:39.477Z,9.24
2023-01-09T12:51:14.354Z,9.26
2023-01-09T12:53:47.517Z,9.21
2023-01-09T12:56:20.259Z,9.19
2023-01-09T12:59:06.037Z,9.14
2023-01-09T13:01:39.073Z,9.31
2023-01-09T13:08:01.049Z,9.28
2023-01-09T13:10:48.099Z,9.16
2023-01-09T13:13:54.002Z,9.04
2023-01-09T13:16:34.627Z,9.05
2023-01-09T13:19:10.659Z,8.97
2023-01-09T13:21:41.556Z,8.93
2023-01-09T13:24:24.555Z,8.87
2023-01-09T13:26:58.366Z,8.87
2023-01-09T13:29:48.153Z,8.93
2023-01-09T13:35:01.910Z,8.83
2023-01-09T13:37:51.848Z,8.74
2023-01-09T13:40:21.579Z,8.69
2023-01-09T13:43:05.922Z,8.60
2023-01-09T13:45:44.980Z,8.53
2023-01-09T13:48:14.228Z,8.36
2023-01-09T13:50:46.081Z,8.24
2023-01-09T13:53:27.228Z,8.21
2023-01-09T13:56:03.283Z,8.23
2023-01-09T13:58:39.875Z,8.16
2023-01-09T14:01:25.183Z,8.17
2023-01-09T14:04:21.678Z,8.15
2023-01-09T14:07:24.489Z,8.07
2023-01-09T14:10:01.185Z,7.93
2023-01-09T14:12:31.689Z,7.90
2023-01-09T14:15:04.134Z,7.91
2023-01-09T14:17:40.752Z,7.87
2023-01-09T14:20:23.721Z,7.78
2023-01-09T14:23:18.178Z,7.77
2023-01-09T14:25:45.014Z,7.60
2023-01-09T14:28:26.839Z,7.54
2023-01-09T14:30:53.855Z,7.48
2023-01-09T14:33:20.847Z,7.45
2023-01-09T14:36:11.549Z,7.33
2023-01-09T14:38:48.387Z,7.14
2023-01-09T14:41:46.186Z,7.28
2023-01-09T14:44:43.374Z,7.24
2023-01-09T14:47:22.902Z,7.11
2023-01-09T14:50:06.596Z,6.89
2023-01-09T14:52:44.931Z,6.83
2023-01-09T14:55:37.179Z,6.75
2023-01-09T14:58:31.582Z,6.58
2023-01-09T15:01:15.017Z,6.63
2023-01-09T15:04:04.508Z,6.58
2023-01-09T15:06:36.263Z,6.58
2023-01-09T15:09:15.063Z,6.45
2023-01-09T15:11:42.452Z,6.39
2023-01-09T15:14:26.872Z,6.46
2023-01-09T15:16:54.406Z,6.33
2023-01-09T15:19:24.667Z,6.35
2023-01-09T15:22:30.784Z,6.30
2023-01-09T15:24:58.961Z,6.20
2023-01-09T15:27:27.170Z,6.19
2023-01-09T15:29:54.154Z,6.15
2023-01-09T15:32:26.308Z,6.15
2023-01-09T15:34:55.716Z,6.22
2023-01-09T15:37:28.152Z,6.17
2023-01-09T15:40:00.971Z,6.15
2023-01-09T15:42:52.858Z,6.03
2023-01-09T15:45:25.531Z,6.00
2023-01-09T15:47:52.995Z,5.98
2023-01-09T15:50:28.408Z,5.78
2023-01-09T15:52:56.564Z,5.71
2023-01-09T15:55:38.942Z,5.59
2023-01-09T15:58:27.485Z,5.42
2023-01-09T16:00:58.368Z,5.27
2023-01-09T16:03:27.167Z,5.19
2023-01-09T16:06:05.869Z,5.17
2023-01-09T16:08:39.747Z,5.11
2023-01-09T16:11:22.526Z,4.91
2023-01-09T16:13:50.308Z,4.71
2023-01-09T16:16:31.170Z,4.62
2023-01-09T16:18:59.521Z,4.46
2023-01-09T16:21:37.348Z,4.33
2023-01-09T16:24:08.898Z,4.38
2023-01-09T16:26:35.702Z,4.08
2023-01-09T16:29:28.692Z,4.05
2023-01-09T16:32:00.675Z,3.94
2023-01-09T16:34:28.043Z,3.77
2023-01-09T16:36:55.239Z,3.65
2023-01-09T16:39:26.144Z,3.71
2023-01-09T16:42:33.695Z,3.68
2023-01-09T16:45:00.685Z,3.70
2023-01-09T16:47:29.405Z,3.61
2023-01-09T16:49:56.619Z,3.65
2023-01-09T16:52:23.688Z,3.70
2023-01-09T16:54:54.075Z,3.54
2023-01-09T16:57:21.131Z,3.54
2023-01-09T16:59:48.405Z,3.53
2023-01-09T17:02:20.387Z,3.48
2023-01-09T17:05:03.697Z,3.44
2023-01-09T17:11:24.683Z,3.23
2023-01-09T17:13:51.528Z,3.12
2023-01-09T17:16:19.620Z,3.16
2023-01-09T17:18:46.945Z,3.06
2023-01-09T17:21:25.342Z,3.12
2023-01-09T17:24:12.497Z,2.97
2023-01-09T17:27:01.902Z,2.89
2023-01-09T17:29:33.130Z,2.89
2023-01-09T17:31:59.940Z,2.80
2023-01-09T17:34:26.987Z,2.73
2023-01-09T17:36:55.775Z,2.72
2023-01-09T17:39:23.806Z,2.77
2023-01-09T17:41:50.516Z,2.73
2023-01-09T17:44:17.376Z,2.58
2023-01-09T17:46:45.497Z,2.65
2023-01-09T17:49:22.640Z,2.52
2023-01-09T17:51:50.009Z,2.59
2023-01-09T17:54:17.496Z,2.49
2023-01-09T17:56:52.486Z,2.51
2023-01-09T17:59:19.284Z,2.33
2023-01-09T18:01:47.593Z,2.40
2023-01-09T18:04:14.702Z,2.27
2023-01-09T18:06:41.667Z,2.22
2023-01-09T18:09:14.302Z,2.22
2023-01-09T18:11:41.252Z,2.21
2023-01-09T18:14:08.953Z,2.27
2023-01-09T18:16:36.146Z,2.18
2023-01-09T18:19:04.025Z,2.13
2023-01-09T18:21:31.376Z,2.27
2023-01-09T18:24:00.253Z,2.33
2023-01-09T18:26:27.563Z,2.29
2023-01-09T18:28:59.898Z,2.21
2023-01-09T18:31:28.466Z,2.33
2023-01-09T18:33:57.769Z,2.29
2023-01-09T18:36:29.996Z,2.35
2023-01-09T18:38:59.280Z,2.38
2023-01-09T18:41:27.195Z,2.49
2023-01-09T18:43:57.263Z,2.57
2023-01-09T18:46:24.859Z,2.68
2023-01-09T18:48:57.080Z,2.65
2023-01-09T18:51:25.812Z,2.68
2023-01-09T18:53:53.248Z,2.70
2023-01-09T18:56:21.444Z,2.61
2023-01-09T18:58:48.912Z,2.56
2023-01-09T19:01:16.666Z,2.50
2023-01-09T19:03:43.734Z,2.58
2023-01-09T19:06:11.180Z,2.63
2023-01-09T19:08:38.346Z,2.56
2023-01-09T19:11:05.836Z,2.58
2023-01-09T19:13:37.483Z,2.68
2023-01-09T19:16:06.141Z,2.54
2023-01-09T19:18:38.881Z,2.59
2023-01-09T19:21:15.279Z,2.80
2023-01-09T19:23:44.059Z,3.05
2023-01-09T19:26:23.762Z,3.09
2023-01-09T19:28:52.013Z,2.96
2023-01-09T19:31:19.570Z,2.90
2023-01-09T19:33:46.618Z,2.98
2023-01-09T19:36:13.606Z,2.90
2023-01-09T19:38:40.612Z,2.85
2023-01-09T19:41:14.406Z,2.94
2023-01-09T19:43:42.112Z,2.95
2023-01-09T19:46:11.563Z,2.97
2023-01-09T19:48:38.757Z,2.92
2023-01-09T19:51:07.652Z,3.00
2023-01-09T19:53:36.634Z,2.99
2023-01-09T19:56:23.495Z,2.93
2023-01-09T19:58:55.707Z,2.91
2023-01-09T20:01:25.755Z,2.90
2023-01-09T20:03:54.094Z,2.91
2023-01-09T20:06:24.503Z,2.98
2023-01-09T20:08:57.720Z,3.09
2023-01-09T20:11:27.208Z,3.23
2023-01-09T20:13:55.784Z,3.28
2023-01-09T20:16:30.845Z,3.28
2023-01-09T20:18:59.803Z,3.54
2023-01-09T20:21:28.751Z,4.01
2023-01-09T20:23:58.935Z,4.74
2023-01-09T20:26:26.144Z,4.98
2023-01-09T20:28:53.040Z,5.05
2023-01-09T20:31:21.451Z,5.11
2023-01-09T20:33:49.635Z,5.33
2023-01-09T20:36:16.807Z,5.66
2023-01-09T20:38:44.092Z,6.00
2023-01-09T20:41:25.598Z,6.25
2023-01-09T20:43:55.858Z,6.42
2023-01-09T20:46:25.080Z,6.28
2023-01-09T20:48:55.304Z,6.39
2023-01-09T20:51:22.314Z,6.34
2023-01-09T20:53:55.807Z,6.39
2023-01-09T20:56:27.433Z,6.30
2023-01-09T20:58:55.901Z,6.32
2023-01-09T21:01:25.979Z,6.29
2023-01-09T21:03:55.263Z,6.29
2023-01-09T21:06:24.204Z,6.37
2023-01-09T21:08:53.245Z,6.38
2023-01-09T21:11:21.749Z,6.39
2023-01-09T21:13:48.977Z,6.46
2023-01-09T21:16:21.841Z,6.48
2023-01-09T21:18:48.889Z,6.48
2023-01-09T21:21:19.084Z,6.62
2023-01-09T21:23:54.203Z,6.72
2023-01-09T21:26:25.782Z,6.85
2023-01-09T21:28:55.374Z,6.92
2023-01-09T21:31:25.806Z,6.92
2023-01-09T21:33:54.578Z,6.90
2023-01-09T21:36:22.165Z,7.06
2023-01-09T21:38:52.330Z,7.19
2023-01-09T21:41:39.158Z,7.18
2023-01-09T21:44:25.600Z,7.28
2023-01-09T21:46:52.614Z,7.39
2023-01-09T21:49:25.520Z,7.59
2023-01-09T21:51:53.807Z,7.74
2023-01-09T21:54:23.249Z,7.84
2023-01-09T21:56:51.801Z,7.95
2023-01-09T21:59:19.757Z,7.94
2023-01-09T22:01:47.892Z,8.07
2023-01-09T22:04:15.961Z,8.04
2023-01-09T22:06:43.338Z,8.22
2023-01-09T22:09:10.679Z,8.32
2023-01-09T22:11:38.942Z,8.43
2023-01-09T22:14:06.355Z,8.60
2023-01-09T22:16:33.954Z,8.70
2023-01-09T22:19:01.080Z,8.87
2023-01-09T22:21:27.936Z,8.83
2023-01-09T22:23:55.095Z,8.96
2023-01-09T22:26:21.927Z,9.02
2023-01-09T22:28:50.748Z,9.14
2023-01-09T22:31:21.215Z,9.28
2023-01-09T22:33:53.124Z,9.23
2023-01-09T22:36:20.502Z,9.29
2023-01-09T22:38:47.966Z,9.38
2023-01-09T22:41:15.425Z,9.44
2023-01-09T22:43:42.294Z,9.36
2023-01-09T22:46:11.704Z,9.39
2023-01-09T22:48:40.119Z,9.48
2023-01-09T22:51:12.234Z,9.39
2023-01-09T22:53:39.304Z,9.47
2023-01-09T22:56:13.725Z,9.41
2023-01-09T22:58:41.061Z,9.56
2023-01-09T23:01:13.314Z,9.55
2023-01-09T23:03:40.577Z,9.62
2023-01-09T23:06:13.137Z,9.58
2023-01-09T23:08:40.869Z,9.59
2023-01-09T23:11:15.252Z,9.40
2023-01-09T23:13:42.930Z,9.37
2023-01-09T23:16:10.247Z,9.23
2023-01-09T23:18:37.103Z,9.08
2023-01-09T23:21:05.475Z,9.01
2023-01-09T23:23:32.830Z,8.85
2023-01-09T23:26:03.497Z,8.83
2023-01-09T23:28:33.573Z,8.57
2023-01-09T23:31:00.339Z,8.44
2023-01-09T23:33:27.024Z,8.34
2023-01-09T23:35:53.969Z,8.31
2023-01-09T23:38:21.206Z,8.37
2023-01-09T23:40:48.144Z,8.14
2023-01-09T23:43:15.865Z,8.11
2023-01-09T23:45:45.051Z,8.05
2023-01-09T23:48:14.940Z,8.01
2023-01-09T23:50:49.525Z,7.92
2023-01-09T23:53:17.241Z,7.81
2023-01-09T23:55:44.547Z,7.72
2023-01-09T23:58:11.691Z,7.56
